createdAt,value
2016-11-11T00:00:01.345Z,0
2016-11-11T00:01:00.350Z,0
2016-11-11T00:02:00.413Z,0
2016-11-11T00:03:00.757Z,0
2016-11-11T00:04:01.809Z,0
2016-11-11T00:05:00.789Z,0
2016-11-11T00:06:00.726Z,0
2016-11-11T00:07:00.122Z,0
2016-11-11T00:08:00.119Z,0
2016-11-11T00:09:00.458Z,0
2016-11-11T00:10:00.457Z,0
2016-11-11T00:11:00.813Z,0
2016-11-11T00:12:01.828Z,0
2016-11-11T00:13:00.510Z,0
2016-11-11T00:14:01.807Z,0
2016-11-11T00:15:00.853Z,0
2016-11-11T00:16:00.851Z,0
2016-11-11T00:17:00.355Z,0
2016-11-11T00:18:01.908Z,0
2016-11-11T00:19:00.689Z,0
2016-11-11T00:20:00.912Z,0
2016-11-11T00:21:00.609Z,0
2016-11-11T00:22:00.627Z,0
2016-11-11T00:23:01.611Z,0
2016-11-11T00:24:00.647Z,0
2016-11-11T00:25:00.276Z,0
2016-11-11T00:26:00.688Z,0
2016-11-11T00:27:01.016Z,0
2016-11-11T00:28:01.024Z,0
2016-11-11T00:29:01.041Z,0
2016-11-11T00:30:01.698Z,0
2016-11-11T00:31:00.049Z,0
2016-11-11T00:32:00.849Z,0
2016-11-11T00:33:01.149Z,0
2016-11-11T00:34:00.796Z,0
2016-11-11T00:35:01.112Z,0
2016-11-11T00:36:00.880Z,0
2016-11-11T00:37:01.166Z,0
2016-11-11T00:38:00.537Z,0
2016-11-11T00:39:01.185Z,0
2016-11-11T00:40:01.187Z,0
2016-11-11T00:41:00.823Z,0
2016-11-11T00:42:01.213Z,0
2016-11-11T00:43:00.911Z,0
2016-11-11T00:44:02.216Z,0
2016-11-11T00:45:01.267Z,0
2016-11-11T00:46:02.288Z,0
2016-11-11T00:47:00.980Z,0
2016-11-11T00:48:01.406Z,0
2016-11-11T00:49:01.460Z,0
2016-11-11T00:50:00.953Z,0
2016-11-11T00:51:01.376Z,0
2016-11-11T00:52:01.055Z,0
2016-11-11T00:53:02.062Z,0
2016-11-11T00:54:02.038Z,0
2016-11-11T00:55:01.069Z,0
2016-11-11T00:56:01.090Z,0
2016-11-11T00:57:01.041Z,0
2016-11-11T00:58:02.147Z,0
2016-11-11T00:59:01.120Z,0
2016-11-11T01:00:01.489Z,0
2016-11-11T01:01:02.228Z,0
2016-11-11T01:02:01.507Z,0
2016-11-11T01:03:01.614Z,0
2016-11-11T01:04:02.481Z,0
2016-11-11T01:05:02.196Z,0
2016-11-11T01:06:01.247Z,0
2016-11-11T01:07:01.244Z,0
2016-11-11T01:08:01.558Z,0
2016-11-11T01:09:02.545Z,0
2016-11-11T01:10:01.595Z,0
2016-11-11T01:11:02.571Z,0
2016-11-11T01:12:01.648Z,0
2016-11-11T01:13:01.371Z,0
2016-11-11T01:14:01.725Z,0
2016-11-11T01:15:02.635Z,0
2016-11-11T01:16:01.309Z,0
2016-11-11T01:17:02.679Z,0
2016-11-11T01:18:02.385Z,0
2016-11-11T01:19:01.725Z,0
2016-11-11T01:20:01.417Z,0
2016-11-11T01:21:01.372Z,0
2016-11-11T01:22:01.785Z,0
2016-11-11T01:23:01.800Z,0
2016-11-11T01:24:01.469Z,0
2016-11-11T01:25:01.488Z,0
2016-11-11T01:26:01.916Z,0
2016-11-11T01:27:01.889Z,0
2016-11-11T01:28:01.925Z,0
2016-11-11T01:29:01.557Z,0
2016-11-11T01:30:02.840Z,0
2016-11-11T01:31:01.575Z,0
2016-11-11T01:32:01.914Z,0
2016-11-11T01:33:01.924Z,0
2016-11-11T01:34:02.902Z,0
2016-11-11T01:35:01.951Z,0
2016-11-11T01:36:01.748Z,0
2016-11-11T01:37:01.966Z,0
2016-11-11T01:38:01.977Z,0
2016-11-11T01:39:02.663Z,0
2016-11-11T01:40:01.710Z,0
2016-11-11T01:41:02.111Z,0
2016-11-11T01:42:02.057Z,0
2016-11-11T01:43:03.015Z,0
2016-11-11T01:44:03.066Z,0
2016-11-11T01:45:01.678Z,0
2016-11-11T01:46:01.094Z,0
2016-11-11T01:47:01.499Z,0
2016-11-11T01:48:02.166Z,0
2016-11-11T01:49:02.200Z,0
2016-11-11T01:50:02.147Z,0
2016-11-11T01:51:02.164Z,0
2016-11-11T01:52:01.871Z,0
2016-11-11T01:53:01.966Z,0
2016-11-11T01:54:02.219Z,0
2016-11-11T01:55:02.224Z,0
2016-11-11T01:56:02.315Z,0
2016-11-11T01:57:02.057Z,0
2016-11-11T01:58:02.348Z,0
2016-11-11T01:59:02.617Z,0
2016-11-11T02:00:01.966Z,0
2016-11-11T02:01:02.024Z,0
2016-11-11T02:02:02.001Z,0
2016-11-11T02:03:02.330Z,0
2016-11-11T02:04:02.378Z,0
2016-11-11T02:05:02.051Z,0
2016-11-11T02:06:02.367Z,0
2016-11-11T02:07:02.367Z,0
2016-11-11T02:08:03.355Z,0
2016-11-11T02:09:02.410Z,0
2016-11-11T02:10:01.817Z,0
2016-11-11T02:11:02.125Z,0
2016-11-11T02:12:01.942Z,0
2016-11-11T02:13:02.154Z,0
2016-11-11T02:14:03.551Z,0
2016-11-11T02:15:02.627Z,0
2016-11-11T02:16:02.601Z,0
2016-11-11T02:17:02.572Z,0
2016-11-11T02:18:02.219Z,0
2016-11-11T02:19:03.631Z,0
2016-11-11T02:20:02.565Z,0
2016-11-11T02:21:02.568Z,0
2016-11-11T02:22:02.280Z,0
2016-11-11T02:23:02.315Z,0
2016-11-11T02:24:02.626Z,0
2016-11-11T02:25:02.467Z,0
2016-11-11T02:26:02.640Z,0
2016-11-11T02:27:02.447Z,0
2016-11-11T02:28:02.711Z,0
2016-11-11T02:29:02.166Z,0
2016-11-11T02:30:02.538Z,0
2016-11-11T02:31:03.692Z,0
2016-11-11T02:32:03.770Z,0
2016-11-11T02:33:02.467Z,0
2016-11-11T02:34:02.456Z,0
2016-11-11T02:35:02.761Z,0
2016-11-11T02:36:02.768Z,0
2016-11-11T02:37:03.759Z,0
2016-11-11T02:38:03.471Z,0
2016-11-11T02:39:02.498Z,0
2016-11-11T02:40:02.836Z,0
2016-11-11T02:41:02.858Z,0
2016-11-11T02:42:02.873Z,0
2016-11-11T02:43:03.531Z,0
2016-11-11T02:44:02.890Z,0
2016-11-11T02:45:02.599Z,0
2016-11-11T02:46:02.921Z,0
2016-11-11T02:47:03.091Z,0
2016-11-11T02:48:02.627Z,0
2016-11-11T02:49:02.662Z,0
2016-11-11T02:50:02.651Z,0
2016-11-11T02:51:02.688Z,0
2016-11-11T02:52:03.017Z,0
2016-11-11T02:53:02.307Z,0
2016-11-11T02:54:03.009Z,0
2016-11-11T02:55:03.043Z,0
2016-11-11T02:56:03.051Z,0
2016-11-11T02:57:02.768Z,0
2016-11-11T02:58:02.449Z,0
2016-11-11T02:59:02.769Z,0
2016-11-11T03:00:03.256Z,0
2016-11-11T03:01:02.807Z,0
2016-11-11T03:02:03.203Z,0
2016-11-11T03:03:02.832Z,0
2016-11-11T03:04:03.230Z,0
2016-11-11T03:05:03.181Z,0
2016-11-11T03:06:04.158Z,0
2016-11-11T03:07:03.851Z,0
2016-11-11T03:08:02.900Z,0
2016-11-11T03:09:02.945Z,0
2016-11-11T03:10:04.234Z,0
2016-11-11T03:11:02.959Z,0
2016-11-11T03:12:04.029Z,0
2016-11-11T03:13:04.300Z,0
2016-11-11T03:14:03.392Z,0
2016-11-11T03:15:04.362Z,0
2016-11-11T03:16:03.009Z,0
2016-11-11T03:17:03.443Z,0
2016-11-11T03:18:03.394Z,0
2016-11-11T03:19:03.098Z,0
2016-11-11T03:20:04.341Z,0
2016-11-11T03:21:03.396Z,0
2016-11-11T03:22:03.401Z,0
2016-11-11T03:23:03.096Z,0
2016-11-11T03:24:03.425Z,0
2016-11-11T03:25:04.422Z,0
2016-11-11T03:26:04.098Z,0
2016-11-11T03:27:03.195Z,0
2016-11-11T03:28:03.531Z,0
2016-11-11T03:29:04.558Z,0
2016-11-11T03:30:03.131Z,0
2016-11-11T03:31:04.172Z,0
2016-11-11T03:32:02.914Z,0
2016-11-11T03:33:03.247Z,0
2016-11-11T03:34:03.578Z,0
2016-11-11T03:35:03.291Z,0
2016-11-11T03:36:04.558Z,0
2016-11-11T03:37:03.639Z,0
2016-11-11T03:38:03.312Z,0
2016-11-11T03:39:03.322Z,0
2016-11-11T03:40:03.338Z,0
2016-11-11T03:41:03.667Z,0
2016-11-11T03:42:04.788Z,0
2016-11-11T03:43:03.408Z,0
2016-11-11T03:44:03.785Z,0
2016-11-11T03:45:04.356Z,0
2016-11-11T03:46:03.728Z,0
2016-11-11T03:47:03.739Z,0
2016-11-11T03:48:03.786Z,0
2016-11-11T03:49:04.745Z,0
2016-11-11T03:50:04.439Z,0
2016-11-11T03:51:03.557Z,0
2016-11-11T03:52:03.806Z,0
2016-11-11T03:53:03.796Z,0
2016-11-11T03:54:04.161Z,0
2016-11-11T03:55:03.601Z,0
2016-11-11T03:56:03.550Z,0
2016-11-11T03:57:04.528Z,0
2016-11-11T03:58:03.958Z,0
2016-11-11T03:59:03.578Z,0
2016-11-11T04:00:04.879Z,0
2016-11-11T04:01:03.966Z,0
2016-11-11T04:02:03.622Z,0
2016-11-11T04:03:03.638Z,0
2016-11-11T04:04:03.976Z,0
2016-11-11T04:05:03.692Z,0
2016-11-11T04:06:03.985Z,0
2016-11-11T04:07:03.986Z,0
2016-11-11T04:08:03.405Z,0
2016-11-11T04:09:03.709Z,0
2016-11-11T04:10:03.780Z,0
2016-11-11T04:11:04.073Z,0
2016-11-11T04:12:04.206Z,0
2016-11-11T04:13:03.793Z,0
2016-11-11T04:14:03.774Z,0
2016-11-11T04:15:04.209Z,0
2016-11-11T04:16:04.137Z,0
2016-11-11T04:17:04.249Z,0
2016-11-11T04:18:03.530Z,0
2016-11-11T04:19:05.120Z,0
2016-11-11T04:20:05.150Z,0
2016-11-11T04:21:03.657Z,0
2016-11-11T04:22:03.880Z,0
2016-11-11T04:23:04.208Z,0
2016-11-11T04:24:04.314Z,0
2016-11-11T04:25:04.231Z,0
2016-11-11T04:26:04.343Z,0
2016-11-11T04:27:03.940Z,0
2016-11-11T04:28:04.038Z,0
2016-11-11T04:29:04.300Z,0
2016-11-11T04:30:04.329Z,0
2016-11-11T04:31:05.320Z,0
2016-11-11T04:32:04.324Z,0
2016-11-11T04:33:04.019Z,0
2016-11-11T04:34:03.717Z,0
2016-11-11T04:35:04.394Z,0
2016-11-11T04:36:04.061Z,0
2016-11-11T04:37:05.359Z,0
2016-11-11T04:38:04.401Z,0
2016-11-11T04:39:04.083Z,0
2016-11-11T04:40:03.810Z,0
2016-11-11T04:41:04.428Z,0
2016-11-11T04:42:04.446Z,0
2016-11-11T04:43:04.155Z,0
2016-11-11T04:44:04.605Z,0
2016-11-11T04:45:05.230Z,0
2016-11-11T04:46:04.582Z,0
2016-11-11T04:47:04.584Z,0
2016-11-11T04:48:04.264Z,0
2016-11-11T04:49:04.565Z,0
2016-11-11T04:50:04.565Z,0
2016-11-11T04:51:05.220Z,0
2016-11-11T04:52:04.581Z,0
2016-11-11T04:53:04.352Z,0
2016-11-11T04:54:04.651Z,0
2016-11-11T04:55:04.359Z,0
2016-11-11T04:56:04.308Z,0
2016-11-11T04:57:04.664Z,0
2016-11-11T04:58:04.671Z,0
2016-11-11T04:59:04.453Z,0
2016-11-11T05:00:04.463Z,0
2016-11-11T05:01:04.843Z,0
2016-11-11T05:02:04.777Z,0
2016-11-11T05:03:04.469Z,0
2016-11-11T05:04:04.469Z,0
2016-11-11T05:05:04.448Z,0
2016-11-11T05:06:04.796Z,0
2016-11-11T05:07:04.462Z,0
2016-11-11T05:08:04.478Z,0
2016-11-11T05:09:04.405Z,0
2016-11-11T05:10:04.502Z,0
2016-11-11T05:11:04.573Z,0
2016-11-11T05:12:04.846Z,0
2016-11-11T05:13:04.212Z,0
2016-11-11T05:14:05.528Z,0
2016-11-11T05:15:04.733Z,0
2016-11-11T05:16:05.587Z,0
2016-11-11T05:17:06.017Z,0
2016-11-11T05:18:05.572Z,0
2016-11-11T05:19:04.706Z,0
2016-11-11T05:20:04.655Z,0
2016-11-11T05:21:04.982Z,0
2016-11-11T05:22:04.610Z,0
2016-11-11T05:23:04.966Z,0
2016-11-11T05:24:04.660Z,0
2016-11-11T05:25:06.006Z,0
2016-11-11T05:26:04.718Z,0
2016-11-11T05:27:05.025Z,0
2016-11-11T05:28:05.376Z,0
2016-11-11T05:29:04.728Z,0
2016-11-11T05:30:06.121Z,0
2016-11-11T05:31:05.078Z,0
2016-11-11T05:32:05.119Z,0
2016-11-11T05:33:05.141Z,0
2016-11-11T05:34:04.793Z,0
2016-11-11T05:35:04.807Z,0
2016-11-11T05:36:06.123Z,0
2016-11-11T05:37:05.136Z,0
2016-11-11T05:38:04.858Z,0
2016-11-11T05:39:05.196Z,0
2016-11-11T05:40:05.192Z,0
2016-11-11T05:41:04.570Z,0
2016-11-11T05:42:04.888Z,0
2016-11-11T05:43:05.948Z,0
2016-11-11T05:44:05.229Z,0
2016-11-11T05:45:04.930Z,0
2016-11-11T05:46:05.387Z,0
2016-11-11T05:47:04.963Z,0
2016-11-11T05:48:06.286Z,0
2016-11-11T05:49:05.065Z,0
2016-11-11T05:50:06.292Z,0
2016-11-11T05:51:05.343Z,0
2016-11-11T05:52:05.327Z,0
2016-11-11T05:53:05.334Z,0
2016-11-11T05:54:05.041Z,0
2016-11-11T05:55:05.397Z,0
2016-11-11T05:56:05.166Z,0
2016-11-11T05:57:05.388Z,0
2016-11-11T05:58:06.068Z,0
2016-11-11T05:59:06.401Z,0
2016-11-11T06:00:05.449Z,0
2016-11-11T06:01:05.191Z,0
2016-11-11T06:02:05.147Z,0
2016-11-11T06:03:04.764Z,0
2016-11-11T06:04:06.455Z,0
2016-11-11T06:05:05.549Z,0
2016-11-11T06:06:05.511Z,0
2016-11-11T06:07:05.233Z,4
2016-11-11T06:08:05.539Z,52
2016-11-11T06:09:05.559Z,52
2016-11-11T06:10:05.587Z,52
2016-11-11T06:11:05.258Z,52
2016-11-11T06:12:05.603Z,52
2016-11-11T06:13:04.982Z,8
2016-11-11T06:14:04.987Z,8
2016-11-11T06:15:05.295Z,8
2016-11-11T06:16:05.328Z,12
2016-11-11T06:17:05.772Z,12
2016-11-11T06:18:06.323Z,16
2016-11-11T06:19:05.704Z,16
2016-11-11T06:20:05.693Z,20
2016-11-11T06:21:05.382Z,20
2016-11-11T06:22:05.728Z,24
2016-11-11T06:23:05.754Z,32
2016-11-11T06:24:06.403Z,36
2016-11-11T06:25:05.462Z,40
2016-11-11T06:26:05.072Z,44
2016-11-11T06:27:05.771Z,56
2016-11-11T06:28:05.155Z,64
2016-11-11T06:29:05.857Z,68
2016-11-11T06:30:05.824Z,76
2016-11-11T06:31:05.103Z,88
2016-11-11T06:32:05.526Z,100
2016-11-11T06:33:06.822Z,108
2016-11-11T06:34:05.252Z,124
2016-11-11T06:35:05.244Z,136
2016-11-11T06:36:05.890Z,152
2016-11-11T06:37:05.932Z,168
2016-11-11T06:38:05.946Z,188
2016-11-11T06:39:05.928Z,208
2016-11-11T06:40:06.913Z,224
2016-11-11T06:41:05.708Z,244
2016-11-11T06:42:06.660Z,268
2016-11-11T06:43:05.716Z,288
2016-11-11T06:44:06.088Z,308
2016-11-11T06:45:06.122Z,332
2016-11-11T06:46:06.088Z,360
2016-11-11T06:47:06.976Z,384
2016-11-11T06:48:05.713Z,408
2016-11-11T06:49:05.427Z,432
2016-11-11T06:50:06.108Z,464
2016-11-11T06:51:06.075Z,496
2016-11-11T06:52:05.767Z,524
2016-11-11T06:53:06.726Z,552
2016-11-11T06:54:06.120Z,588
2016-11-11T06:55:05.822Z,620
2016-11-11T06:56:05.810Z,656
2016-11-11T06:57:06.134Z,696
2016-11-11T06:58:06.399Z,732
2016-11-11T06:59:05.864Z,768
2016-11-11T07:00:06.162Z,800
2016-11-11T07:01:05.883Z,840
2016-11-11T07:02:06.853Z,876
2016-11-11T07:03:06.212Z,916
2016-11-11T07:04:06.219Z,960
2016-11-11T07:05:06.018Z,1000
2016-11-11T07:06:06.259Z,1040
2016-11-11T07:07:05.893Z,1080
2016-11-11T07:08:06.363Z,1116
2016-11-11T07:09:06.043Z,1144
2016-11-11T07:10:06.309Z,1172
2016-11-11T07:11:05.985Z,1204
2016-11-11T07:12:06.356Z,1244
2016-11-11T07:13:07.309Z,1292
2016-11-11T07:14:05.820Z,1348
2016-11-11T07:15:06.031Z,1408
2016-11-11T07:16:05.752Z,1464
2016-11-11T07:17:07.351Z,1516
2016-11-11T07:18:06.169Z,1568
2016-11-11T07:19:06.388Z,1628
2016-11-11T07:20:06.029Z,1680
2016-11-11T07:21:06.508Z,1732
2016-11-11T07:22:07.533Z,1780
2016-11-11T07:23:06.442Z,1836
2016-11-11T07:24:06.473Z,1884
2016-11-11T07:25:06.157Z,1928
2016-11-11T07:26:06.167Z,1960
2016-11-11T07:27:06.489Z,2000
2016-11-11T07:28:06.179Z,2040
2016-11-11T07:29:06.539Z,2088
2016-11-11T07:30:06.214Z,2128
2016-11-11T07:31:07.199Z,2168
2016-11-11T07:32:06.555Z,2224
2016-11-11T07:33:06.621Z,2268
2016-11-11T07:34:06.202Z,2292
2016-11-11T07:35:06.950Z,2340
2016-11-11T07:36:06.604Z,2396
2016-11-11T07:37:06.619Z,2444
2016-11-11T07:38:06.332Z,2492
2016-11-11T07:39:07.633Z,2540
2016-11-11T07:40:07.420Z,2580
2016-11-11T07:41:06.345Z,2624
2016-11-11T07:42:06.702Z,2664
2016-11-11T07:43:06.359Z,2704
2016-11-11T07:44:07.654Z,2752
2016-11-11T07:45:06.069Z,2784
2016-11-11T07:46:06.385Z,2800
2016-11-11T07:47:06.732Z,2824
2016-11-11T07:48:06.419Z,2864
2016-11-11T07:49:06.433Z,2872
2016-11-11T07:50:06.839Z,2884
2016-11-11T07:51:06.470Z,2880
2016-11-11T07:52:07.763Z,2912
2016-11-11T07:53:06.963Z,2956
2016-11-11T07:54:07.739Z,3016
2016-11-11T07:55:06.933Z,3060
2016-11-11T07:56:06.742Z,3100
2016-11-11T07:57:07.522Z,3108
2016-11-11T07:58:07.068Z,3124
2016-11-11T07:59:06.924Z,3148
2016-11-11T08:00:07.805Z,3176
2016-11-11T08:01:06.897Z,3148
2016-11-11T08:02:07.084Z,3156
2016-11-11T08:03:06.730Z,3136
2016-11-11T08:04:06.861Z,3136
2016-11-11T08:05:07.164Z,3168
2016-11-11T08:06:07.313Z,3212
2016-11-11T08:07:07.965Z,3264
2016-11-11T08:08:06.966Z,3284
2016-11-11T08:09:07.803Z,3336
2016-11-11T08:10:07.746Z,3380
2016-11-11T08:11:06.810Z,3396
2016-11-11T08:12:07.031Z,3444
2016-11-11T08:13:06.917Z,3496
2016-11-11T08:14:07.323Z,3492
2016-11-11T08:15:07.155Z,3484
2016-11-11T08:16:06.702Z,3484
2016-11-11T08:17:06.869Z,3516
2016-11-11T08:18:07.096Z,3536
2016-11-11T08:19:07.197Z,3564
2016-11-11T08:20:07.288Z,3556
2016-11-11T08:21:08.923Z,3568
2016-11-11T08:22:06.933Z,3600
2016-11-11T08:23:07.245Z,3612
2016-11-11T08:24:07.182Z,3616
2016-11-11T08:25:07.191Z,3648
2016-11-11T08:26:07.908Z,3672
2016-11-11T08:27:06.383Z,3668
2016-11-11T08:28:07.219Z,3640
2016-11-11T08:29:07.440Z,3672
2016-11-11T08:30:06.941Z,3684
2016-11-11T08:31:07.660Z,3684
2016-11-11T08:32:07.269Z,3696
2016-11-11T08:33:06.685Z,3724
2016-11-11T08:34:08.260Z,3728
2016-11-11T08:35:08.074Z,3716
2016-11-11T08:36:07.989Z,3732
2016-11-11T08:37:07.148Z,3752
2016-11-11T08:38:07.109Z,3756
2016-11-11T08:39:07.093Z,3780
2016-11-11T08:40:07.092Z,3776
2016-11-11T08:41:06.773Z,3772
2016-11-11T08:42:08.151Z,3760
2016-11-11T08:43:07.019Z,3756
2016-11-11T08:44:07.253Z,3788
2016-11-11T08:45:07.433Z,3772
2016-11-11T08:46:07.521Z,3804
2016-11-11T08:47:07.475Z,3820
2016-11-11T08:48:07.193Z,3812
2016-11-11T08:49:07.616Z,3816
2016-11-11T08:50:07.191Z,3848
2016-11-11T08:51:08.163Z,3828
2016-11-11T08:52:06.951Z,3852
2016-11-11T08:53:07.590Z,3856
2016-11-11T08:54:07.279Z,3860
2016-11-11T08:55:07.686Z,3836
2016-11-11T08:56:07.189Z,3864
2016-11-11T08:57:07.276Z,3876
2016-11-11T08:58:07.647Z,3868
2016-11-11T08:59:07.298Z,3884
2016-11-11T09:00:08.593Z,3868
2016-11-11T09:01:07.659Z,3856
2016-11-11T09:02:07.648Z,3872
2016-11-11T09:03:07.029Z,3880
2016-11-11T09:04:07.665Z,3880
2016-11-11T09:05:07.353Z,3864
2016-11-11T09:06:07.753Z,3856
2016-11-11T09:07:08.373Z,3884
2016-11-11T09:08:07.403Z,3880
2016-11-11T09:09:07.754Z,3920
2016-11-11T09:10:07.464Z,3916
2016-11-11T09:11:07.483Z,3912
2016-11-11T09:12:08.113Z,3920
2016-11-11T09:13:07.822Z,3928
2016-11-11T09:14:08.455Z,3944
2016-11-11T09:15:08.463Z,3920
2016-11-11T09:16:07.829Z,3936
2016-11-11T09:17:07.828Z,3956
2016-11-11T09:18:08.240Z,3956
2016-11-11T09:19:07.544Z,3968
2016-11-11T09:20:07.894Z,3976
2016-11-11T09:21:07.918Z,3960
2016-11-11T09:22:07.926Z,3952
2016-11-11T09:23:07.635Z,3956
2016-11-11T09:24:07.609Z,3976
2016-11-11T09:25:08.904Z,3960
2016-11-11T09:26:09.009Z,3972
2016-11-11T09:27:07.648Z,3952
2016-11-11T09:28:08.959Z,3996
2016-11-11T09:29:07.999Z,3984
2016-11-11T09:30:08.009Z,4004
2016-11-11T09:31:09.327Z,4016
2016-11-11T09:32:07.713Z,3992
2016-11-11T09:33:07.742Z,3984
2016-11-11T09:34:08.057Z,4016
2016-11-11T09:35:07.762Z,4044
2016-11-11T09:36:09.075Z,4060
2016-11-11T09:37:07.900Z,4040
2016-11-11T09:38:08.754Z,4032
2016-11-11T09:39:09.100Z,4056
2016-11-11T09:40:08.133Z,4056
2016-11-11T09:41:08.160Z,4060
2016-11-11T09:42:08.270Z,4056
2016-11-11T09:43:08.178Z,4068
2016-11-11T09:44:08.843Z,4072
2016-11-11T09:45:08.192Z,4068
2016-11-11T09:46:08.071Z,4072
2016-11-11T09:47:07.911Z,4052
2016-11-11T09:48:08.258Z,4064
2016-11-11T09:49:08.915Z,4076
2016-11-11T09:50:08.925Z,4092
2016-11-11T09:51:07.919Z,4088
2016-11-11T09:52:08.310Z,4080
2016-11-11T09:53:09.276Z,4068
2016-11-11T09:54:08.325Z,4076
2016-11-11T09:55:09.338Z,4100
2016-11-11T09:56:07.819Z,4120
2016-11-11T09:57:08.376Z,4128
2016-11-11T09:58:08.434Z,4132
2016-11-11T09:59:09.351Z,4124
2016-11-11T10:00:07.773Z,4112
2016-11-11T10:01:08.415Z,4108
2016-11-11T10:02:08.430Z,4104
2016-11-11T10:03:08.183Z,4148
2016-11-11T10:04:08.139Z,4124
2016-11-11T10:05:08.469Z,4124
2016-11-11T10:06:08.488Z,4140
2016-11-11T10:07:08.178Z,4132
2016-11-11T10:08:09.162Z,4144
2016-11-11T10:09:08.315Z,4144
2016-11-11T10:10:08.354Z,4204
2016-11-11T10:11:08.659Z,4160
2016-11-11T10:12:09.532Z,4152
2016-11-11T10:13:08.578Z,4152
2016-11-11T10:14:09.252Z,4152
2016-11-11T10:15:08.622Z,4140
2016-11-11T10:16:08.398Z,4112
2016-11-11T10:17:08.339Z,4128
2016-11-11T10:18:08.658Z,4128
2016-11-11T10:19:09.387Z,4124
2016-11-11T10:20:09.323Z,4156
2016-11-11T10:21:08.683Z,4160
2016-11-11T10:22:08.848Z,4136
2016-11-11T10:23:08.400Z,4152
2016-11-11T10:24:08.718Z,4136
2016-11-11T10:25:08.844Z,4128
2016-11-11T10:26:09.418Z,4124
2016-11-11T10:27:08.473Z,4124
2016-11-11T10:28:09.760Z,4120
2016-11-11T10:29:08.543Z,4112
2016-11-11T10:30:08.829Z,4080
2016-11-11T10:31:09.802Z,4052
2016-11-11T10:32:09.802Z,4048
2016-11-11T10:33:08.869Z,4080
2016-11-11T10:34:08.242Z,4096
2016-11-11T10:35:08.879Z,4076
2016-11-11T10:36:08.582Z,4068
2016-11-11T10:37:09.894Z,4060
2016-11-11T10:38:08.922Z,4080
2016-11-11T10:39:09.962Z,4072
2016-11-11T10:40:09.070Z,4084
2016-11-11T10:41:08.998Z,4072
2016-11-11T10:42:08.674Z,4080
2016-11-11T10:43:09.664Z,4076
2016-11-11T10:44:08.738Z,4096
2016-11-11T10:45:09.040Z,4088
2016-11-11T10:46:08.718Z,4072
2016-11-11T10:47:09.069Z,4040
2016-11-11T10:48:08.901Z,4036
2016-11-11T10:49:10.061Z,4056
2016-11-11T10:50:08.489Z,4092
2016-11-11T10:51:10.072Z,4072
2016-11-11T10:52:09.129Z,4024
2016-11-11T10:53:09.159Z,4012
2016-11-11T10:54:08.849Z,4028
2016-11-11T10:55:10.226Z,4044
2016-11-11T10:56:09.193Z,4060
2016-11-11T10:57:09.219Z,4048
2016-11-11T10:58:08.898Z,4064
2016-11-11T10:59:09.642Z,4036
2016-11-11T11:00:10.206Z,4056
2016-11-11T11:01:09.299Z,4096
2016-11-11T11:02:09.264Z,4064
2016-11-11T11:03:08.980Z,4056
2016-11-11T11:04:09.312Z,4036
2016-11-11T11:05:10.313Z,4036
2016-11-11T11:06:09.341Z,4036
2016-11-11T11:07:09.027Z,4000
2016-11-11T11:08:09.575Z,4020
2016-11-11T11:09:09.428Z,3988
2016-11-11T11:10:10.381Z,3988
2016-11-11T11:11:09.446Z,4032
2016-11-11T11:12:10.074Z,4060
2016-11-11T11:13:08.819Z,4060
2016-11-11T11:14:10.448Z,4012
2016-11-11T11:15:08.839Z,3992
2016-11-11T11:16:09.479Z,4012
2016-11-11T11:17:09.494Z,4012
2016-11-11T11:18:10.260Z,4012
2016-11-11T11:19:09.865Z,4008
2016-11-11T11:20:09.251Z,4024
2016-11-11T11:21:09.229Z,4004
2016-11-11T11:22:09.662Z,3976
2016-11-11T11:23:10.590Z,3960
2016-11-11T11:24:09.290Z,3980
2016-11-11T11:25:10.623Z,3996
2016-11-11T11:26:09.302Z,4000
2016-11-11T11:27:09.325Z,3992
2016-11-11T11:28:09.339Z,3976
2016-11-11T11:29:09.270Z,3972
2016-11-11T11:30:09.678Z,3956
2016-11-11T11:31:10.669Z,3956
2016-11-11T11:32:10.682Z,3952
2016-11-11T11:33:09.722Z,3952
2016-11-11T11:34:09.525Z,3952
2016-11-11T11:35:09.864Z,3952
2016-11-11T11:36:10.653Z,3944
2016-11-11T11:37:09.853Z,3944
2016-11-11T11:38:09.853Z,3940
2016-11-11T11:39:09.507Z,3948
2016-11-11T11:40:41.638Z,3952
2016-11-11T11:41:10.068Z,3960
2016-11-11T11:42:09.869Z,3960
2016-11-11T11:43:09.570Z,3980
2016-11-11T11:44:09.916Z,3980
2016-11-11T11:45:09.911Z,3980
2016-11-11T11:46:09.611Z,3992
2016-11-11T11:47:09.931Z,3976
2016-11-11T11:48:09.653Z,3960
2016-11-11T11:49:09.987Z,3972
2016-11-11T11:50:10.070Z,3988
2016-11-11T11:51:10.973Z,3968
2016-11-11T11:52:10.757Z,3972
2016-11-11T11:53:10.098Z,3964
2016-11-11T11:54:09.720Z,3964
2016-11-11T11:55:09.729Z,3968
2016-11-11T11:56:10.099Z,3992
2016-11-11T11:57:10.751Z,3992
2016-11-11T11:58:10.077Z,4000
2016-11-11T11:59:10.110Z,4000
2016-11-11T12:00:09.520Z,3988
2016-11-11T12:01:10.155Z,3996
2016-11-11T12:02:10.299Z,3980
2016-11-11T12:03:10.397Z,3964
2016-11-11T12:04:09.567Z,3972
2016-11-11T12:05:10.868Z,3972
2016-11-11T12:06:09.909Z,3980
2016-11-11T12:07:11.449Z,3984
2016-11-11T12:08:11.359Z,3976
2016-11-11T12:09:10.263Z,3948
2016-11-11T12:10:11.337Z,3932
2016-11-11T12:11:09.980Z,3924
2016-11-11T12:12:11.436Z,3920
2016-11-11T12:13:11.688Z,3912
2016-11-11T12:14:11.358Z,3920
2016-11-11T12:15:11.002Z,3920
2016-11-11T12:16:10.415Z,3932
2016-11-11T12:17:10.409Z,3928
2016-11-11T12:18:42.318Z,3904
2016-11-11T12:19:10.202Z,3892
2016-11-11T12:20:10.207Z,3900
2016-11-11T12:21:10.128Z,3896
2016-11-11T12:22:10.210Z,3896
2016-11-11T12:23:10.466Z,3884
2016-11-11T12:24:11.621Z,3876
2016-11-11T12:25:10.522Z,3868
2016-11-11T12:26:10.600Z,3864
2016-11-11T12:27:11.509Z,3852
2016-11-11T12:28:09.933Z,3852
2016-11-11T12:29:11.558Z,3840
2016-11-11T12:30:11.617Z,3824
2016-11-11T12:31:10.290Z,3804
2016-11-11T12:32:09.983Z,3800
2016-11-11T12:33:10.321Z,3800
2016-11-11T12:34:10.655Z,3800
2016-11-11T12:35:10.655Z,3796
2016-11-11T12:36:10.697Z,3804
2016-11-11T12:37:10.071Z,3796
2016-11-11T12:38:10.866Z,3780
2016-11-11T12:39:10.084Z,3764
2016-11-11T12:40:10.746Z,3768
2016-11-11T12:41:10.737Z,3756
2016-11-11T12:42:10.775Z,3748
2016-11-11T12:43:10.779Z,3752
2016-11-11T12:44:11.783Z,3740
2016-11-11T12:45:10.200Z,3732
2016-11-11T12:46:10.817Z,3716
2016-11-11T12:47:10.816Z,3704
2016-11-11T12:48:10.948Z,3700
2016-11-11T12:49:10.563Z,3700
2016-11-11T12:50:10.986Z,3704
2016-11-11T12:51:11.037Z,3708
2016-11-11T12:52:10.618Z,3708
2016-11-11T12:53:10.968Z,3696
2016-11-11T12:54:10.317Z,3692
2016-11-11T12:55:10.967Z,3688
2016-11-11T12:56:10.977Z,3672
2016-11-11T12:57:11.713Z,3656
2016-11-11T12:58:10.679Z,3652
2016-11-11T12:59:10.725Z,3648
2016-11-11T13:00:11.026Z,3644
2016-11-11T13:01:11.056Z,3632
2016-11-11T13:02:12.091Z,3628
2016-11-11T13:03:11.733Z,3620
2016-11-11T13:04:10.469Z,3608
2016-11-11T13:05:10.789Z,3596
2016-11-11T13:06:12.212Z,3584
2016-11-11T13:07:11.136Z,3576
2016-11-11T13:08:11.152Z,3568
2016-11-11T13:09:11.178Z,3560
2016-11-11T13:10:10.555Z,3548
2016-11-11T13:11:11.208Z,3536
2016-11-11T13:12:11.222Z,3536
2016-11-11T13:13:10.238Z,3540
2016-11-11T13:14:10.948Z,3536
2016-11-11T13:15:10.950Z,3532
2016-11-11T13:16:11.013Z,3520
2016-11-11T13:17:12.111Z,3512
2016-11-11T13:18:10.988Z,3492
2016-11-11T13:19:10.700Z,3472
2016-11-11T13:20:11.058Z,3460
2016-11-11T13:21:11.119Z,3512
2016-11-11T13:22:11.385Z,3504
2016-11-11T13:23:11.379Z,3496
2016-11-11T13:24:11.402Z,3472
2016-11-11T13:25:11.406Z,3456
2016-11-11T13:26:11.431Z,3444
2016-11-11T13:27:11.439Z,3440
2016-11-11T13:28:11.460Z,3432
2016-11-11T13:29:11.485Z,3420
2016-11-11T13:30:11.516Z,3412
2016-11-11T13:31:12.009Z,3400
2016-11-11T13:32:11.862Z,3384
2016-11-11T13:33:11.548Z,3360
2016-11-11T13:34:11.279Z,3336
2016-11-11T13:35:11.613Z,3316
2016-11-11T13:36:12.027Z,3304
2016-11-11T13:37:10.959Z,3296
2016-11-11T13:38:11.297Z,3288
2016-11-11T13:39:12.610Z,3284
2016-11-11T13:40:12.608Z,3268
2016-11-11T13:41:12.390Z,3252
2016-11-11T13:42:12.521Z,3252
2016-11-11T13:43:12.459Z,3236
2016-11-11T13:44:12.126Z,3220
2016-11-11T13:45:12.697Z,3216
2016-11-11T13:46:12.733Z,3204
2016-11-11T13:47:11.946Z,3192
2016-11-11T13:48:11.124Z,3180
2016-11-11T13:49:11.941Z,3172
2016-11-11T13:50:11.422Z,3148
2016-11-11T13:51:12.767Z,3132
2016-11-11T13:52:12.006Z,3116
2016-11-11T13:53:11.527Z,3096
2016-11-11T13:54:12.135Z,3076
2016-11-11T13:55:12.227Z,3060
2016-11-11T13:56:12.099Z,3040
2016-11-11T13:57:12.879Z,3020
2016-11-11T13:58:11.583Z,3004